createdAt,value
2022-11-24T00:00:10.628Z,9.90
2022-11-24T00:01:43.500Z,12.15
2022-11-24T00:03:16.506Z,12.38
2022-11-24T00:04:49.288Z,11.93
2022-11-24T00:06:24.447Z,16.52
2022-11-24T00:07:57.200Z,13.32
2022-11-24T00:09:30.079Z,13.38
2022-11-24T00:11:07.670Z,13.93
2022-11-24T00:12:40.371Z,10.70
2022-11-24T00:14:13.390Z,11.75
2022-11-24T00:15:45.216Z,11.85
2022-11-24T00:17:18.158Z,14.65
2022-11-24T00:18:52.972Z,10.05
2022-11-24T00:20:25.723Z,14.40
2022-11-24T00:21:59.817Z,14.57
2022-11-24T00:23:31.608Z,13.15
2022-11-24T00:25:04.951Z,7.88
2022-11-24T00:26:38.312Z,10.88
2022-11-24T00:28:10.135Z,14.63
2022-11-24T00:29:42.847Z,14.25
2022-11-24T00:31:17.626Z,10.90
2022-11-24T00:32:50.592Z,12.80
2022-11-24T00:34:22.696Z,10.60
2022-11-24T00:35:57.042Z,13.13
2022-11-24T00:37:31.256Z,14.50
2022-11-24T00:39:05.964Z,17.40
2022-11-24T00:40:38.749Z,12.98
2022-11-24T00:42:11.469Z,10.85
2022-11-24T00:43:44.175Z,14.90
2022-11-24T00:45:16.921Z,14.13
2022-11-24T00:46:48.909Z,10.77
2022-11-24T00:48:21.901Z,12.52
2022-11-24T00:49:54.586Z,11.35
2022-11-24T00:51:30.127Z,15.93
2022-11-24T00:53:04.254Z,10.68
2022-11-24T00:54:37.002Z,16.92
2022-11-24T00:56:11.093Z,12.98
2022-11-24T00:57:43.781Z,13.02
2022-11-24T00:59:16.479Z,10.70
2022-11-24T01:00:48.286Z,8.70
2022-11-24T01:02:21.030Z,12.18
2022-11-24T01:03:55.009Z,13.63
2022-11-24T01:05:26.756Z,16.25
2022-11-24T01:06:59.480Z,11.90
2022-11-24T01:08:32.959Z,13.68
2022-11-24T01:10:06.774Z,11.02
2022-11-24T01:11:57.079Z,13.10
2022-11-24T01:13:29.802Z,13.52
2022-11-24T01:15:02.786Z,12.85
2022-11-24T01:16:38.638Z,18.90
2022-11-24T01:18:13.268Z,12.52
2022-11-24T01:19:47.078Z,14.30
2022-11-24T01:21:21.043Z,14.10
2022-11-24T01:22:52.829Z,11.90
2022-11-24T01:24:26.858Z,17.63
2022-11-24T01:25:58.574Z,15.52
2022-11-24T01:27:31.529Z,16.08
2022-11-24T01:29:04.284Z,12.95
2022-11-24T01:30:37.115Z,11.07
2022-11-24T01:32:09.904Z,14.13
2022-11-24T01:33:41.648Z,12.73
2022-11-24T01:35:14.391Z,13.85
2022-11-24T01:36:47.125Z,10.85
2022-11-24T01:38:19.022Z,17.77
2022-11-24T01:39:53.081Z,17.08
2022-11-24T01:41:26.919Z,12.20
2022-11-24T01:42:59.636Z,16.88
2022-11-24T01:44:32.787Z,17.20
2022-11-24T01:46:14.608Z,17.38
2022-11-24T01:47:47.391Z,17.05
2022-11-24T01:49:26.852Z,17.58
2022-11-24T01:51:08.283Z,14.68
2022-11-24T01:52:45.222Z,12.63
2022-11-24T01:54:25.048Z,13.65
2022-11-24T01:55:59.800Z,16.67
2022-11-24T01:57:36.752Z,11.65
2022-11-24T01:59:11.887Z,12.45
2022-11-24T02:00:46.659Z,17.25
2022-11-24T02:02:20.423Z,14.27
2022-11-24T02:03:53.646Z,17.52
2022-11-24T02:05:29.404Z,12.77
2022-11-24T02:07:04.323Z,12.90
2022-11-24T02:08:42.561Z,22.13
2022-11-24T02:10:17.495Z,17.92
2022-11-24T02:11:52.793Z,15.18
2022-11-24T02:13:25.468Z,17.58
2022-11-24T02:14:59.624Z,18.08
2022-11-24T02:16:33.503Z,15.18
2022-11-24T02:18:06.420Z,16.05
2022-11-24T02:19:48.649Z,15.35
2022-11-24T02:21:21.415Z,16.13
2022-11-24T02:22:58.115Z,17.23
2022-11-24T02:24:36.501Z,16.13
2022-11-24T02:26:14.899Z,17.27
2022-11-24T02:27:53.897Z,13.57
2022-11-24T02:29:27.072Z,11.73
2022-11-24T02:31:01.062Z,13.55
2022-11-24T02:32:34.992Z,15.30
2022-11-24T02:34:07.727Z,17.45
2022-11-24T02:35:40.932Z,20.48
2022-11-24T02:37:13.626Z,16.90
2022-11-24T02:38:46.361Z,14.30
2022-11-24T02:40:24.886Z,15.35
2022-11-24T02:42:01.977Z,19.15
2022-11-24T02:43:40.158Z,19.52
2022-11-24T02:45:15.203Z,14.23
2022-11-24T02:46:47.909Z,15.60
2022-11-24T02:48:21.549Z,18.38
2022-11-24T02:49:54.330Z,17.48
2022-11-24T02:51:27.944Z,15.30
2022-11-24T02:53:00.643Z,16.50
2022-11-24T02:54:33.736Z,16.70
2022-11-24T02:56:07.248Z,17.67
2022-11-24T02:57:39.962Z,11.48
2022-11-24T02:59:14.012Z,20.10
2022-11-24T03:00:46.886Z,18.88
2022-11-24T03:02:18.667Z,16.30
2022-11-24T03:03:51.392Z,18.40
2022-11-24T03:05:24.648Z,18.52
2022-11-24T03:06:57.578Z,16.83
2022-11-24T03:08:30.501Z,13.50
2022-11-24T03:10:02.285Z,16.95
2022-11-24T03:11:35.086Z,23.65
2022-11-24T03:13:07.839Z,18.63
2022-11-24T03:14:40.927Z,17.58
2022-11-24T03:16:13.700Z,18.48
2022-11-24T03:17:46.464Z,20.75
2022-11-24T03:19:19.188Z,19.85
2022-11-24T03:20:51.919Z,21.45
2022-11-24T03:22:24.637Z,17.42
2022-11-24T03:23:57.357Z,17.80
2022-11-24T03:25:29.159Z,17.15
2022-11-24T03:27:01.892Z,19.70
2022-11-24T03:28:33.665Z,15.15
2022-11-24T03:30:09.175Z,22.52
2022-11-24T03:31:41.976Z,17.02
2022-11-24T03:33:14.958Z,14.57
2022-11-24T03:34:47.194Z,19.15
2022-11-24T03:36:20.179Z,16.60
2022-11-24T03:37:52.878Z,25.05
2022-11-24T03:39:25.603Z,14.15
2022-11-24T03:40:58.364Z,17.80
2022-11-24T03:42:31.063Z,15.30
2022-11-24T03:44:03.890Z,18.38
2022-11-24T03:45:45.811Z,18.65
2022-11-24T03:47:19.324Z,17.25
2022-11-24T03:48:51.078Z,17.38
2022-11-24T03:50:23.805Z,14.98
2022-11-24T03:51:56.511Z,23.00
2022-11-24T03:53:31.464Z,17.80
2022-11-24T03:55:04.323Z,16.30
2022-11-24T03:56:36.109Z,13.85
2022-11-24T03:58:08.834Z,17.73
2022-11-24T03:59:42.030Z,16.02
2022-11-24T04:01:16.155Z,17.40
2022-11-24T04:02:48.194Z,19.50
2022-11-24T04:04:20.955Z,19.30
2022-11-24T04:05:53.800Z,16.13
2022-11-24T04:07:26.508Z,16.67
2022-11-24T04:09:00.751Z,22.25
2022-11-24T04:10:35.563Z,15.32
2022-11-24T04:12:25.800Z,18.17
2022-11-24T04:13:58.543Z,26.77
2022-11-24T04:15:31.303Z,17.95
2022-11-24T04:17:04.667Z,15.73
2022-11-24T04:18:37.404Z,18.52
2022-11-24T04:20:11.569Z,23.38
2022-11-24T04:21:44.646Z,22.70
2022-11-24T04:23:16.739Z,21.58
2022-11-24T04:24:49.434Z,31.73
2022-11-24T04:26:22.166Z,26.27
2022-11-24T04:27:56.471Z,17.42
2022-11-24T04:29:28.204Z,19.77
2022-11-24T04:31:03.233Z,20.88
2022-11-24T04:32:36.711Z,19.63
2022-11-24T04:34:09.424Z,26.63
2022-11-24T04:35:41.240Z,18.15
2022-11-24T04:37:13.985Z,19.70
2022-11-24T04:39:22.784Z,18.75
2022-11-24T04:40:39.409Z,20.77
2022-11-24T04:42:11.147Z,21.13
2022-11-24T04:43:43.881Z,19.17
2022-11-24T04:45:17.380Z,18.80
2022-11-24T04:46:49.357Z,22.15
2022-11-24T04:48:23.457Z,19.83
2022-11-24T04:49:56.569Z,20.70
2022-11-24T04:51:29.306Z,22.35
2022-11-24T04:53:02.018Z,20.42
2022-11-24T04:54:34.848Z,23.55
2022-11-24T04:56:08.775Z,20.13
2022-11-24T04:57:41.576Z,19.05
2022-11-24T04:59:15.665Z,19.25
2022-11-24T05:00:48.367Z,14.75
2022-11-24T05:02:21.771Z,24.40
2022-11-24T05:03:56.325Z,21.67
2022-11-24T05:05:28.214Z,18.48
2022-11-24T05:07:00.938Z,20.60
2022-11-24T05:08:33.727Z,20.80
2022-11-24T05:10:25.172Z,20.33
2022-11-24T05:11:58.038Z,21.95
2022-11-24T05:13:30.790Z,16.08
2022-11-24T05:15:05.771Z,19.50
2022-11-24T05:16:38.567Z,19.67
2022-11-24T05:18:13.460Z,17.48
2022-11-24T05:19:46.537Z,20.70
2022-11-24T05:21:19.256Z,23.00
2022-11-24T05:22:51.323Z,18.63
2022-11-24T05:24:24.078Z,21.48
2022-11-24T05:26:00.476Z,22.67
2022-11-24T05:27:32.261Z,23.17
2022-11-24T05:29:04.980Z,23.33
2022-11-24T05:30:38.411Z,19.90
2022-11-24T05:32:11.180Z,21.13
2022-11-24T05:33:44.002Z,19.95
2022-11-24T05:35:18.886Z,21.73
2022-11-24T05:36:53.259Z,18.05
2022-11-24T05:38:26.531Z,22.10
2022-11-24T05:39:58.300Z,19.38
2022-11-24T05:41:31.009Z,25.38
2022-11-24T05:43:02.790Z,14.30
2022-11-24T05:44:35.899Z,18.48
2022-11-24T05:46:08.752Z,20.50
2022-11-24T05:47:42.751Z,22.38
2022-11-24T05:49:15.476Z,17.85
2022-11-24T05:50:54.742Z,22.10
2022-11-24T05:52:27.504Z,16.50
2022-11-24T05:54:00.279Z,17.83
2022-11-24T05:55:33.560Z,17.65
2022-11-24T05:57:05.498Z,17.05
2022-11-24T05:58:38.273Z,22.38
2022-11-24T06:00:12.630Z,19.52
2022-11-24T06:01:45.464Z,20.13
2022-11-24T06:03:18.317Z,19.08
2022-11-24T06:04:51.123Z,19.83
2022-11-24T06:06:25.179Z,17.10
2022-11-24T06:07:59.606Z,16.67
2022-11-24T06:09:32.338Z,14.55
2022-11-24T06:11:18.377Z,19.08
2022-11-24T06:12:51.402Z,16.65
2022-11-24T06:14:24.245Z,18.48
2022-11-24T06:16:00.086Z,19.95
2022-11-24T06:17:32.853Z,17.75
2022-11-24T06:19:05.588Z,16.40
2022-11-24T06:20:38.328Z,13.57
2022-11-24T06:22:12.553Z,23.67
2022-11-24T06:23:48.320Z,17.10
2022-11-24T06:25:21.039Z,21.05
2022-11-24T06:26:52.949Z,21.35
2022-11-24T06:28:25.726Z,19.33
2022-11-24T06:29:58.481Z,18.92
2022-11-24T06:31:31.210Z,13.90
2022-11-24T06:33:04.432Z,16.17
2022-11-24T06:34:37.494Z,15.48
2022-11-24T06:36:14.435Z,23.65
2022-11-24T06:37:48.510Z,16.73
2022-11-24T06:39:21.231Z,12.32
2022-11-24T06:40:59.971Z,16.45
2022-11-24T06:42:32.695Z,18.17
2022-11-24T06:44:05.975Z,16.25
2022-11-24T06:45:38.793Z,13.93
2022-11-24T06:47:11.540Z,11.65
2022-11-24T06:48:44.245Z,14.70
2022-11-24T06:50:17.517Z,14.43
2022-11-24T06:51:51.251Z,9.38
2022-11-24T06:53:25.327Z,11.82
2022-11-24T06:54:58.078Z,12.35
2022-11-24T06:56:30.763Z,13.10
2022-11-24T06:58:04.123Z,8.90
2022-11-24T06:59:36.827Z,9.85
2022-11-24T07:01:10.158Z,13.10
2022-11-24T07:02:46.126Z,10.10
2022-11-24T07:04:19.087Z,14.10
2022-11-24T07:05:58.040Z,13.40
2022-11-24T07:07:30.828Z,13.35
2022-11-24T07:09:05.038Z,14.45
2022-11-24T07:10:37.973Z,10.20
2022-11-24T07:12:10.695Z,9.18
2022-11-24T07:13:43.672Z,11.75
2022-11-24T07:15:16.466Z,11.90
2022-11-24T07:16:49.487Z,10.38
2022-11-24T07:18:22.416Z,11.75
2022-11-24T07:19:55.155Z,13.63
2022-11-24T07:21:29.360Z,9.10
2022-11-24T07:23:02.066Z,9.32
2022-11-24T07:24:36.456Z,7.55
2022-11-24T07:26:11.499Z,10.30
2022-11-24T07:27:44.232Z,9.18
2022-11-24T07:29:16.976Z,8.85
2022-11-24T07:30:49.815Z,8.13
2022-11-24T07:32:22.600Z,8.50
2022-11-24T07:33:56.514Z,11.55
2022-11-24T07:35:29.997Z,10.15
2022-11-24T07:37:02.731Z,11.68
2022-11-24T07:38:36.122Z,8.10
2022-11-24T07:40:11.730Z,9.13
2022-11-24T07:41:44.488Z,8.45
2022-11-24T07:43:20.177Z,8.23
2022-11-24T07:44:53.163Z,7.78
2022-11-24T07:46:26.061Z,14.32
2022-11-24T07:47:58.810Z,10.95
2022-11-24T07:49:31.537Z,7.90
2022-11-24T07:51:05.752Z,8.88
2022-11-24T07:52:38.731Z,7.82
2022-11-24T07:54:11.808Z,12.70
2022-11-24T07:55:53.539Z,7.75
2022-11-24T07:57:26.249Z,10.23
2022-11-24T07:58:59.004Z,9.80
2022-11-24T08:00:31.714Z,10.75
2022-11-24T08:02:04.509Z,9.25
2022-11-24T08:03:37.442Z,6.90
2022-11-24T08:05:10.437Z,7.72
2022-11-24T08:06:47.182Z,7.78
2022-11-24T08:08:20.640Z,11.43
2022-11-24T08:09:55.640Z,9.02
2022-11-24T08:11:31.325Z,11.45
2022-11-24T08:13:04.055Z,9.25
2022-11-24T08:14:36.992Z,8.43
2022-11-24T08:16:12.370Z,11.65
2022-11-24T08:17:45.162Z,9.85
2022-11-24T08:19:17.966Z,10.90
2022-11-24T08:20:50.773Z,11.50
2022-11-24T08:22:23.496Z,11.27
2022-11-24T08:23:56.900Z,11.40
2022-11-24T08:25:32.027Z,14.00
2022-11-24T08:27:06.131Z,9.18
2022-11-24T08:28:39.042Z,10.15
2022-11-24T08:30:13.291Z,8.15
2022-11-24T08:31:46.029Z,10.02
2022-11-24T08:33:18.752Z,7.93
2022-11-24T08:34:52.190Z,11.32
2022-11-24T08:36:29.116Z,14.40
2022-11-24T08:38:04.787Z,9.25
2022-11-24T08:39:37.719Z,10.15
2022-11-24T08:41:12.551Z,8.15
2022-11-24T08:42:46.653Z,8.52
2022-11-24T08:44:19.422Z,11.18
2022-11-24T08:45:52.161Z,12.40
2022-11-24T08:47:24.910Z,12.90
2022-11-24T08:48:57.887Z,7.68
2022-11-24T08:50:30.625Z,12.55
2022-11-24T08:52:03.403Z,8.50
2022-11-24T08:53:36.127Z,10.15
2022-11-24T08:55:09.722Z,7.15
2022-11-24T08:56:42.643Z,7.32
2022-11-24T08:58:16.731Z,9.00
2022-11-24T08:59:49.447Z,14.57
2022-11-24T09:01:22.215Z,12.35
2022-11-24T09:02:58.947Z,12.48
2022-11-24T09:04:32.060Z,8.48
2022-11-24T09:06:05.421Z,13.40
2022-11-24T09:07:38.211Z,13.20
2022-11-24T09:09:11.818Z,11.55
2022-11-24T09:10:44.564Z,9.38
2022-11-24T09:12:17.302Z,13.55
2022-11-24T09:13:51.475Z,10.77
2022-11-24T09:15:24.191Z,13.27
2022-11-24T09:16:56.919Z,10.07
2022-11-24T09:18:30.495Z,12.48
2022-11-24T09:20:03.410Z,9.57
2022-11-24T09:21:38.840Z,10.20
2022-11-24T09:23:11.539Z,16.63
2022-11-24T09:24:44.916Z,8.43
2022-11-24T09:26:19.627Z,11.07
2022-11-24T09:27:52.358Z,12.57
2022-11-24T09:29:26.642Z,12.05
2022-11-24T09:31:02.737Z,11.10
2022-11-24T09:32:35.520Z,10.38
2022-11-24T09:34:11.850Z,7.30
2022-11-24T09:35:44.632Z,9.40
2022-11-24T09:37:17.378Z,9.80
2022-11-24T09:38:50.144Z,10.63
2022-11-24T09:40:23.744Z,8.75
2022-11-24T09:42:10.067Z,8.65
2022-11-24T09:43:50.422Z,13.23
2022-11-24T09:46:03.941Z,9.65
2022-11-24T09:47:38.076Z,9.63
2022-11-24T09:49:17.563Z,7.75
2022-11-24T09:50:53.298Z,12.93
2022-11-24T09:52:39.616Z,8.90
2022-11-24T09:54:17.317Z,9.70
2022-11-24T09:55:52.722Z,9.15
2022-11-24T09:57:35.833Z,12.52
2022-11-24T09:59:16.940Z,7.70
2022-11-24T10:00:54.387Z,7.72
2022-11-24T10:02:27.943Z,11.13
2022-11-24T10:04:06.348Z,11.15
2022-11-24T10:05:39.386Z,8.73
2022-11-24T10:07:21.980Z,9.35
2022-11-24T10:09:34.091Z,8.83
2022-11-24T10:11:13.979Z,10.97
2022-11-24T10:12:58.330Z,11.50
2022-11-24T10:14:56.265Z,8.47
2022-11-24T10:16:44.590Z,10.45
2022-11-24T10:18:41.542Z,10.47
2022-11-24T10:20:23.341Z,5.27
2022-11-24T10:22:08.735Z,8.03
2022-11-24T10:23:55.919Z,8.48
2022-11-24T10:25:39.138Z,8.23
2022-11-24T10:27:18.092Z,10.30
2022-11-24T10:28:55.452Z,7.27
2022-11-24T10:30:28.947Z,8.87
2022-11-24T10:32:07.661Z,6.60
2022-11-24T10:33:41.192Z,9.70
2022-11-24T10:35:19.874Z,9.00
2022-11-24T10:36:58.876Z,8.40
2022-11-24T10:38:36.282Z,8.17
2022-11-24T10:40:33.043Z,5.88
2022-11-24T10:42:13.461Z,11.65
2022-11-24T10:43:46.344Z,6.33
2022-11-24T10:45:22.126Z,7.30
2022-11-24T10:46:54.947Z,7.10
2022-11-24T10:48:38.187Z,6.80
2022-11-24T10:50:20.748Z,6.57
2022-11-24T10:52:06.993Z,10.73
2022-11-24T10:53:42.812Z,5.83
2022-11-24T10:55:15.651Z,6.28
2022-11-24T10:56:51.247Z,7.43
2022-11-24T10:58:26.616Z,17.33
2022-11-24T10:59:59.958Z,17.10
2022-11-24T11:01:33.881Z,12.43
2022-11-24T11:03:18.300Z,7.13
2022-11-24T11:04:52.388Z,6.80
2022-11-24T11:06:27.050Z,10.83
2022-11-24T11:08:19.741Z,10.33
2022-11-24T11:10:12.069Z,7.90
2022-11-24T11:11:46.893Z,7.47
2022-11-24T11:13:27.907Z,6.57
2022-11-24T11:15:25.707Z,8.13
2022-11-24T11:16:59.013Z,6.57
2022-11-24T11:18:34.058Z,6.50
2022-11-24T11:20:19.266Z,10.27
2022-11-24T11:22:01.151Z,7.70
2022-11-24T11:23:36.855Z,7.13
2022-11-24T11:25:25.858Z,7.13
2022-11-24T11:27:03.007Z,7.90
2022-11-24T11:28:35.909Z,6.53
2022-11-24T11:34:25.285Z,11.57
2022-11-24T11:36:08.497Z,8.00
2022-11-24T11:37:41.788Z,5.53
2022-11-24T11:39:24.953Z,7.73
2022-11-24T11:40:57.914Z,8.60
2022-11-24T11:43:02.422Z,6.27
2022-11-24T11:44:40.452Z,5.67
2022-11-24T11:46:15.525Z,5.20
2022-11-24T11:47:53.898Z,8.27
2022-11-24T11:49:26.680Z,8.47
2022-11-24T11:51:22.881Z,7.70
2022-11-24T11:53:05.118Z,8.17
2022-11-24T11:55:01.051Z,10.80
2022-11-24T11:56:40.280Z,7.17
2022-11-24T11:58:41.564Z,10.40
2022-11-24T12:00:18.711Z,7.60
2022-11-24T12:02:25.417Z,8.07
2022-11-24T12:04:05.341Z,5.93
2022-11-24T12:05:48.516Z,8.90
2022-11-24T12:07:49.316Z,6.70
2022-11-24T12:09:30.921Z,9.73
2022-11-24T12:11:09.720Z,6.83
2022-11-24T12:13:17.931Z,5.53
2022-11-24T12:15:05.838Z,8.53
2022-11-24T12:16:48.807Z,4.57
2022-11-24T12:18:56.684Z,8.30
2022-11-24T12:20:43.335Z,7.87
2022-11-24T12:22:27.084Z,5.90
2022-11-24T12:24:11.517Z,8.43
2022-11-24T12:25:48.866Z,6.10
2022-11-24T12:27:34.100Z,7.40
2022-11-24T12:29:26.678Z,7.80
2022-11-24T12:31:06.440Z,7.07
2022-11-24T12:33:04.818Z,5.63
2022-11-24T12:34:49.252Z,8.00
2022-11-24T12:36:41.706Z,7.87
2022-11-24T12:38:28.756Z,6.47
2022-11-24T12:40:14.856Z,8.13
2022-11-24T12:42:01.082Z,5.33
2022-11-24T12:43:36.726Z,5.97
2022-11-24T12:45:16.079Z,8.03
2022-11-24T12:46:54.801Z,6.67
2022-11-24T12:48:39.180Z,13.17
2022-11-24T12:50:16.727Z,7.40
2022-11-24T12:51:57.569Z,6.40
2022-11-24T12:53:33.866Z,8.83
2022-11-24T12:55:15.036Z,5.47
2022-11-24T12:56:53.368Z,9.00
2022-11-24T12:58:33.369Z,8.70
2022-11-24T13:00:16.150Z,5.03
2022-11-24T13:01:54.497Z,7.57
2022-11-24T13:03:39.675Z,8.00
2022-11-24T13:05:23.015Z,9.77
2022-11-24T13:07:01.000Z,5.33
2022-11-24T13:08:36.614Z,5.70
2022-11-24T13:10:54.193Z,11.00
2022-11-24T13:12:23.492Z,7.03
2022-11-24T13:13:59.729Z,9.03
2022-11-24T13:15:45.672Z,5.10
2022-11-24T13:17:38.299Z,8.97
2022-11-24T13:19:20.472Z,4.93
2022-11-24T13:20:53.206Z,5.47
2022-11-24T13:22:27.182Z,8.03
2022-11-24T13:24:02.230Z,5.23
2022-11-24T13:25:37.298Z,8.00
2022-11-24T13:27:40.760Z,6.67
2022-11-24T13:29:33.468Z,8.40
2022-11-24T13:31:12.283Z,7.77
2022-11-24T13:32:48.128Z,6.20
2022-11-24T13:35:03.811Z,6.33
2022-11-24T13:36:55.994Z,10.27
2022-11-24T13:38:54.240Z,7.90
2022-11-24T13:40:59.639Z,8.60
2022-11-24T13:43:16.059Z,5.87
2022-11-24T13:44:54.924Z,7.27
2022-11-24T13:47:05.702Z,5.93
2022-11-24T13:49:00.858Z,8.52
2022-11-24T13:51:09.880Z,7.43
2022-11-24T13:52:49.376Z,7.40
2022-11-24T13:54:24.567Z,8.40
2022-11-24T13:56:00.340Z,6.43
2022-11-24T13:57:37.255Z,6.57
2022-11-24T13:59:18.667Z,7.83
2022-11-24T14:01:18.867Z,10.27
2022-11-24T14:02:53.244Z,9.00
2022-11-24T14:06:29.586Z,5.13
2022-11-24T14:08:03.379Z,8.60
2022-11-24T14:09:42.639Z,18.83
2022-11-24T14:11:17.640Z,8.85
2022-11-24T14:13:25.018Z,9.70
2022-11-24T14:15:24.414Z,7.87
2022-11-24T14:17:17.000Z,8.70
2022-11-24T14:18:51.230Z,8.40
2022-11-24T14:20:25.728Z,8.33
2022-11-24T14:21:58.499Z,8.80
2022-11-24T14:23:32.600Z,6.67
2022-11-24T14:25:05.899Z,6.63
2022-11-24T14:26:40.489Z,7.80
2022-11-24T14:28:20.850Z,7.23
2022-11-24T14:29:58.362Z,11.40
2022-11-24T14:31:31.065Z,9.53
2022-11-24T14:33:12.128Z,10.67
2022-11-24T14:34:44.873Z,10.13
2022-11-24T14:36:18.867Z,9.10
2022-11-24T14:37:51.682Z,9.27
2022-11-24T14:39:26.242Z,10.60
2022-11-24T14:41:17.099Z,9.32
2022-11-24T14:42:51.312Z,12.50
2022-11-24T14:44:26.101Z,9.30
2022-11-24T14:46:01.343Z,7.80
2022-11-24T14:47:36.675Z,8.43
2022-11-24T14:49:11.199Z,9.10
2022-11-24T14:50:44.426Z,7.07
2022-11-24T14:52:20.108Z,7.60
2022-11-24T14:53:54.798Z,12.93
2022-11-24T14:55:29.488Z,11.35
2022-11-24T14:57:05.043Z,6.78
2022-11-24T14:58:42.218Z,8.07
2022-11-24T15:00:20.276Z,9.13
2022-11-24T15:01:53.268Z,12.15
2022-11-24T15:03:26.015Z,7.30
2022-11-24T15:05:04.086Z,9.82
2022-11-24T15:06:37.290Z,8.45
2022-11-24T15:08:15.352Z,9.75
2022-11-24T15:09:53.263Z,9.07
2022-11-24T15:11:26.013Z,9.65
2022-11-24T15:13:00.730Z,10.53
2022-11-24T15:14:39.724Z,11.60
2022-11-24T15:16:19.364Z,12.25
2022-11-24T15:17:54.566Z,12.38
2022-11-24T15:19:33.284Z,9.67
2022-11-24T15:21:07.728Z,8.82
2022-11-24T15:22:42.472Z,11.70
2022-11-24T15:24:17.759Z,10.35
2022-11-24T15:25:51.201Z,9.73
2022-11-24T15:27:23.912Z,9.43
2022-11-24T15:28:56.608Z,13.38
2022-11-24T15:30:30.248Z,7.88
2022-11-24T15:32:03.024Z,7.10
2022-11-24T15:33:35.813Z,8.43
2022-11-24T15:35:12.321Z,6.80
2022-11-24T15:36:46.367Z,8.85
2022-11-24T15:38:19.399Z,10.40
2022-11-24T15:39:52.115Z,14.27
2022-11-24T15:41:29.663Z,10.05
2022-11-24T15:43:06.475Z,7.60
2022-11-24T15:44:39.407Z,10.32
2022-11-24T15:46:12.293Z,10.65
2022-11-24T15:47:45.101Z,9.90
2022-11-24T15:49:17.821Z,9.40
2022-11-24T15:50:51.074Z,6.45
2022-11-24T15:52:25.327Z,8.90
2022-11-24T15:54:01.127Z,9.23
2022-11-24T15:55:34.300Z,8.35
2022-11-24T15:57:07.040Z,12.38
2022-11-24T15:58:39.722Z,8.65
2022-11-24T16:00:16.380Z,6.82
2022-11-24T16:01:50.443Z,12.20
2022-11-24T16:03:46.496Z,9.13
2022-11-24T16:05:17.433Z,9.02
2022-11-24T16:06:50.147Z,5.50
2022-11-24T16:08:24.401Z,9.00
2022-11-24T16:09:57.112Z,11.18
2022-11-24T16:11:29.811Z,17.00
2022-11-24T16:13:02.529Z,18.60
2022-11-24T16:14:36.048Z,21.40
2022-11-24T16:16:09.313Z,17.45
2022-11-24T16:17:42.058Z,24.15
2022-11-24T16:19:15.763Z,35.25
2022-11-24T16:20:48.497Z,31.58
2022-11-24T16:22:21.218Z,37.42
2022-11-24T16:23:55.689Z,24.25
2022-11-24T16:25:28.416Z,22.70
2022-11-24T16:27:01.156Z,14.07
2022-11-24T16:28:33.903Z,12.52
2022-11-24T16:30:08.460Z,11.45
2022-11-24T16:31:43.362Z,11.95
2022-11-24T16:33:16.219Z,13.50
2022-11-24T16:34:48.986Z,10.32
2022-11-24T16:36:21.730Z,11.57
2022-11-24T16:37:54.468Z,11.68
2022-11-24T16:39:28.551Z,11.38
2022-11-24T16:41:01.238Z,12.77
2022-11-24T16:42:33.970Z,12.82
2022-11-24T16:44:06.689Z,11.55
2022-11-24T16:45:45.043Z,10.52
2022-11-24T16:47:18.176Z,10.40
2022-11-24T16:48:53.574Z,14.77
2022-11-24T16:50:26.309Z,13.55
2022-11-24T16:51:59.054Z,12.13
2022-11-24T16:53:31.774Z,11.43
2022-11-24T16:55:06.683Z,9.48
2022-11-24T16:56:39.371Z,13.65
2022-11-24T16:58:12.082Z,14.98
2022-11-24T16:59:45.884Z,10.82
2022-11-24T17:01:18.845Z,11.32
2022-11-24T17:02:51.692Z,14.40
2022-11-24T17:04:24.414Z,13.85
2022-11-24T17:05:58.466Z,11.52
2022-11-24T17:07:31.258Z,16.50
2022-11-24T17:09:04.019Z,14.23
2022-11-24T17:10:40.227Z,17.35
2022-11-24T17:12:12.950Z,10.88
2022-11-24T17:13:46.974Z,9.82
2022-11-24T17:15:40.860Z,15.63
2022-11-24T17:17:12.363Z,10.20
2022-11-24T17:18:45.482Z,13.55
2022-11-24T17:20:18.203Z,9.20
2022-11-24T17:21:50.930Z,8.15
2022-11-24T17:23:23.636Z,12.00
2022-11-24T17:24:56.348Z,8.57
2022-11-24T17:26:30.391Z,10.20
2022-11-24T17:28:03.105Z,9.52
2022-11-24T17:29:35.820Z,8.40
2022-11-24T17:31:08.959Z,17.60
2022-11-24T17:32:41.707Z,10.50
2022-11-24T17:34:14.675Z,11.15
2022-11-24T17:35:47.375Z,11.57
2022-11-24T17:37:20.075Z,11.55
2022-11-24T17:38:52.791Z,11.95
2022-11-24T17:40:29.491Z,16.70
2022-11-24T17:42:04.135Z,15.00
2022-11-24T17:43:36.890Z,14.05
2022-11-24T17:45:10.208Z,12.88
2022-11-24T17:46:42.908Z,13.13
2022-11-24T17:48:15.596Z,10.40
2022-11-24T17:49:48.322Z,13.65
2022-11-24T17:51:22.539Z,11.20
2022-11-24T17:52:55.526Z,11.25
2022-11-24T17:56:23.436Z,10.20
2022-11-24T17:57:58.217Z,11.30
2022-11-24T17:59:30.931Z,12.20
2022-11-24T18:01:03.681Z,12.73
2022-11-24T18:02:38.629Z,13.35
2022-11-24T18:04:11.479Z,11.32
2022-11-24T18:05:44.181Z,12.55
2022-11-24T18:07:16.940Z,16.77
2022-11-24T18:08:49.678Z,11.05
2022-11-24T18:10:22.398Z,14.13
2022-11-24T18:11:55.083Z,17.88
2022-11-24T18:13:55.266Z,10.38
2022-11-24T18:15:23.157Z,14.10
2022-11-24T18:16:55.900Z,12.90
2022-11-24T18:18:28.899Z,11.27
2022-11-24T18:20:01.618Z,10.77
2022-11-24T18:21:34.328Z,12.68
2022-11-24T18:23:07.035Z,12.13
2022-11-24T18:24:39.969Z,8.73
2022-11-24T18:26:14.871Z,17.05
2022-11-24T18:27:47.998Z,15.32
2022-11-24T18:29:22.620Z,13.13
2022-11-24T18:31:01.533Z,14.20
2022-11-24T18:32:34.283Z,10.90
2022-11-24T18:34:07.322Z,15.15
2022-11-24T18:35:40.210Z,11.90
2022-11-24T18:37:14.731Z,11.57
2022-11-24T18:38:47.454Z,15.90
2022-11-24T18:40:20.343Z,9.27
2022-11-24T18:41:53.136Z,11.45
2022-11-24T18:43:29.148Z,12.10
2022-11-24T18:45:04.226Z,14.80
2022-11-24T18:46:37.735Z,12.68
2022-11-24T18:48:10.484Z,12.05
2022-11-24T18:49:43.246Z,11.48
2022-11-24T18:51:15.969Z,14.35
2022-11-24T18:52:48.822Z,11.93
2022-11-24T18:54:21.529Z,13.23
2022-11-24T18:55:58.673Z,14.13
2022-11-24T18:57:31.691Z,11.68
2022-11-24T18:59:04.388Z,14.00
2022-11-24T19:00:38.519Z,14.07
2022-11-24T19:02:12.163Z,17.75
2022-11-24T19:03:48.967Z,15.45
2022-11-24T19:05:22.083Z,11.55
2022-11-24T19:06:54.791Z,13.63
2022-11-24T19:08:27.507Z,13.70
2022-11-24T19:10:00.265Z,11.93
2022-11-24T19:11:35.544Z,11.95
2022-11-24T19:13:08.302Z,10.57
2022-11-24T19:14:41.300Z,11.02
2022-11-24T19:16:15.816Z,13.88
2022-11-24T19:17:48.538Z,11.48
2022-11-24T19:19:21.312Z,16.38
2022-11-24T19:20:57.260Z,19.65
2022-11-24T19:22:30.151Z,12.77
2022-11-24T19:24:05.332Z,14.20
2022-11-24T19:25:38.563Z,12.38
2022-11-24T19:27:11.309Z,10.13
2022-11-24T19:28:44.017Z,10.55
2022-11-24T19:30:17.390Z,10.32
2022-11-24T19:31:51.533Z,12.15
2022-11-24T19:33:24.323Z,7.80
2022-11-24T19:34:57.029Z,10.30
2022-11-24T19:36:29.855Z,12.55
2022-11-24T19:38:02.810Z,14.20
2022-11-24T19:39:35.522Z,13.73
2022-11-24T19:41:10.660Z,11.45
2022-11-24T19:42:43.358Z,12.75
2022-11-24T19:44:16.155Z,10.40
2022-11-24T19:45:48.908Z,13.88
2022-11-24T19:47:22.967Z,13.68
2022-11-24T19:48:57.315Z,11.30
2022-11-24T19:50:30.103Z,8.52
2022-11-24T19:52:02.881Z,16.05
2022-11-24T19:53:36.370Z,14.13
2022-11-24T19:55:09.860Z,11.93
2022-11-24T19:56:42.781Z,20.65
2022-11-24T19:58:15.531Z,13.27
2022-11-24T19:59:48.645Z,13.02
2022-11-24T20:01:22.834Z,10.75
2022-11-24T20:02:56.964Z,8.73
2022-11-24T20:04:30.191Z,9.02
2022-11-24T20:06:02.732Z,10.88
2022-11-24T20:07:35.559Z,12.20
2022-11-24T20:09:11.969Z,13.63
2022-11-24T20:10:44.706Z,9.93
2022-11-24T20:12:17.433Z,11.85
2022-11-24T20:13:51.589Z,15.52
2022-11-24T20:15:24.370Z,11.82
2022-11-24T20:16:57.133Z,10.40
2022-11-24T20:18:37.525Z,9.73
2022-11-24T20:20:14.657Z,11.48
2022-11-24T20:21:49.284Z,9.90
2022-11-24T20:23:21.995Z,10.55
2022-11-24T20:24:54.744Z,10.15
2022-11-24T20:26:30.107Z,9.10
2022-11-24T20:28:02.823Z,12.27
2022-11-24T20:29:35.778Z,13.23
2022-11-24T20:31:10.622Z,12.05
2022-11-24T20:32:43.370Z,11.77
2022-11-24T20:34:18.335Z,12.10
2022-11-24T20:35:51.061Z,12.27
2022-11-24T20:37:23.795Z,13.27
2022-11-24T20:38:57.188Z,11.73
2022-11-24T20:40:30.498Z,14.07
2022-11-24T20:42:03.250Z,11.77
2022-11-24T20:43:36.657Z,15.25
2022-11-24T20:45:09.772Z,17.88
2022-11-24T20:46:44.988Z,14.25
2022-11-24T20:48:17.898Z,11.38
2022-11-24T20:49:51.963Z,12.32
2022-11-24T20:51:26.863Z,15.25
2022-11-24T20:52:59.616Z,13.23
2022-11-24T20:54:32.546Z,13.07
2022-11-24T20:56:07.577Z,16.70